Time;durP1;ratioP1;P1;durP2;ratioP2;P2;SDS_P1;SDS_P2;PMS_P1;PMS_P2;Temp;Humidity;BMP_temperature;BMP_pressure;BME280_temperature;BME280_humidity;BME280_pressure;Samples;Min_cycle;Max_cycle;Signal;HPM_P1;HPM_P2
2023/12/24 00:02:02;;;;;;;8.77;1.60;;;;;;;;;;4971666;28;93072;-63
2023/12/24 00:04:28;;;;;;;13.52;2.58;;;;;;;;;;4970734;28;93441;-64
2023/12/24 00:06:55;;;;;;;14.50;2.58;;;;;;;;;;4970668;28;91763;-63
2023/12/24 00:09:21;;;;;;;12.95;2.15;;;;;;;;;;4971398;28;92669;-64
2023/12/24 00:11:47;;;;;;;11.40;2.30;;;;;;;;;;4970106;28;93683;-63
2023/12/24 00:14:14;;;;;;;7.40;2.15;;;;;;;;;;4969129;28;94950;-63
2023/12/24 00:16:43;;;;;;;14.13;2.63;;;;;;;;;;4974452;28;95502;-63
2023/12/24 00:19:09;;;;;;;8.35;1.77;;;;;;;;;;4977351;28;93722;-63
2023/12/24 00:21:35;;;;;;;16.08;2.15;;;;;;;;;;4973967;28;94567;-63
2023/12/24 00:24:02;;;;;;;10.10;1.60;;;;;;;;;;4970784;28;93739;-64
2023/12/24 00:26:29;;;;;;;7.93;2.30;;;;;;;;;;4974710;28;92571;-63
2023/12/24 00:28:55;;;;;;;11.45;1.88;;;;;;;;;;4973962;28;93461;-64
2023/12/24 00:31:21;;;;;;;18.60;2.60;;;;;;;;;;4969076;28;92731;-63
2023/12/24 00:33:49;;;;;;;11.23;2.08;;;;;;;;;;4970963;28;92477;-64
2023/12/24 00:36:15;;;;;;;11.75;2.20;;;;;;;;;;4974201;28;96626;-66
2023/12/24 00:38:42;;;;;;;13.93;1.67;;;;;;;;;;4972304;28;95840;-66
2023/12/24 00:41:08;;;;;;;12.35;1.85;;;;;;;;;;4977388;28;92519;-66
2023/12/24 00:43:35;;;;;;;12.52;2.08;;;;;;;;;;4973494;28;93435;-66
2023/12/24 00:46:01;;;;;;;8.90;1.52;;;;;;;;;;4988273;28;92530;-66
2023/12/24 00:48:27;;;;;;;11.35;1.73;;;;;;;;;;4972344;28;93489;-66
2023/12/24 00:50:54;;;;;;;12.13;2.22;;;;;;;;;;4969619;28;93516;-66
2023/12/24 00:53:20;;;;;;;7.63;1.40;;;;;;;;;;4973921;28;92444;-66
2023/12/24 00:55:46;;;;;;;10.88;1.60;;;;;;;;;;4974527;28;93059;-66
2023/12/24 00:58:14;;;;;;;7.25;1.75;;;;;;;;;;4969854;28;93569;-66
2023/12/24 01:00:41;;;;;;;13.43;1.48;;;;;;;;;;4971769;28;92522;-66
2023/12/24 01:03:07;;;;;;;7.40;1.27;;;;;;;;;;4975070;28;95064;-66
2023/12/24 01:05:34;;;;;;;6.95;1.40;;;;;;;;;;4967173;28;93534;-66
2023/12/24 01:08:00;;;;;;;13.90;1.80;;;;;;;;;;4967719;28;93169;-66
2023/12/24 01:10:26;;;;;;;9.38;1.83;;;;;;;;;;4969617;28;93628;-65
2023/12/24 01:12:53;;;;;;;14.68;1.60;;;;;;;;;;4970639;28;92552;-65
2023/12/24 01:15:20;;;;;;;9.48;2.00;;;;;;;;;;4970815;28;93109;-66
2023/12/24 01:17:46;;;;;;;9.63;2.75;;;;;;;;;;4970746;28;93414;-66
2023/12/24 01:20:16;;;;;;;10.80;2.28;;;;;;;;;;4973427;28;91734;-66
2023/12/24 01:22:43;;;;;;;15.18;1.83;;;;;;;;;;4966280;28;92540;-66
2023/12/24 01:25:09;;;;;;;9.40;1.55;;;;;;;;;;4974156;28;94932;-66
2023/12/24 01:27:36;;;;;;;15.13;1.88;;;;;;;;;;4972017;28;94934;-66
2023/12/24 01:30:03;;;;;;;16.42;2.45;;;;;;;;;;4973428;28;93715;-66
2023/12/24 01:32:29;;;;;;;11.18;2.05;;;;;;;;;;4972027;28;92873;-66
2023/12/24 01:34:57;;;;;;;9.10;2.08;;;;;;;;;;4967632;28;93168;-66
2023/12/24 01:37:24;;;;;;;7.07;1.77;;;;;;;;;;4968398;28;93452;-66
2023/12/24 01:39:50;;;;;;;11.05;2.03;;;;;;;;;;4971615;28;93395;-66
2023/12/24 01:42:16;;;;;;;10.77;2.10;;;;;;;;;;4989528;28;93351;-66
2023/12/24 01:44:43;;;;;;;16.50;2.88;;;;;;;;;;4972776;28;93705;-66
2023/12/24 01:47:09;;;;;;;12.60;2.38;;;;;;;;;;4972650;28;92740;-66
2023/12/24 01:49:36;;;;;;;20.05;2.95;;;;;;;;;;4971919;28;94778;-66
2023/12/24 01:52:02;;;;;;;15.68;2.25;;;;;;;;;;4971696;28;96439;-66
2023/12/24 01:54:30;;;;;;;14.20;2.38;;;;;;;;;;4969244;28;95672;-66
2023/12/24 01:56:57;;;;;;;15.93;2.55;;;;;;;;;;4973274;28;94447;-66
2023/12/24 01:59:24;;;;;;;13.55;2.28;;;;;;;;;;4969160;28;92490;-66
2023/12/24 02:01:50;;;;;;;17.38;3.33;;;;;;;;;;4972281;28;93879;-66
2023/12/24 02:04:17;;;;;;;13.45;2.05;;;;;;;;;;4973210;28;93466;-66
2023/12/24 02:06:43;;;;;;;14.02;2.45;;;;;;;;;;4968017;28;92507;-66
2023/12/24 02:09:09;;;;;;;14.60;2.85;;;;;;;;;;4973083;28;92690;-66
2023/12/24 02:11:36;;;;;;;17.08;3.17;;;;;;;;;;4969176;28;92542;-66
2023/12/24 02:14:02;;;;;;;14.82;2.83;;;;;;;;;;4968450;28;93157;-67
2023/12/24 02:16:31;;;;;;;14.75;2.90;;;;;;;;;;4969245;28;95957;-66
2023/12/24 02:18:58;;;;;;;17.38;2.47;;;;;;;;;;4988088;28;92598;-66
2023/12/24 02:21:24;;;;;;;15.07;2.40;;;;;;;;;;4970887;28;93470;-66
2023/12/24 02:23:50;;;;;;;18.35;2.47;;;;;;;;;;4967051;28;94505;-66
2023/12/24 02:26:31;;;;;;;13.07;2.80;;;;;;;;;;4966981;28;92808;-65
2023/12/24 02:29:05;;;;;;;14.65;2.65;;;;;;;;;;4972129;28;93230;-66
2023/12/24 02:31:32;;;;;;;17.88;2.33;;;;;;;;;;4966192;28;92522;-66
2023/12/24 02:34:01;;;;;;;15.13;2.67;;;;;;;;;;4971653;28;93116;-66
2023/12/24 02:36:29;;;;;;;15.32;2.80;;;;;;;;;;4970978;28;92492;-66
2023/12/24 02:38:56;;;;;;;16.73;2.15;;;;;;;;;;4967821;28;92507;-66
2023/12/24 02:41:22;;;;;;;11.80;2.05;;;;;;;;;;4970317;28;94804;-66
2023/12/24 02:43:49;;;;;;;17.77;2.55;;;;;;;;;;4969032;28;93695;-66
2023/12/24 02:46:15;;;;;;;12.07;2.20;;;;;;;;;;4968723;28;92596;-66
2023/12/24 02:48:41;;;;;;;18.60;2.10;;;;;;;;;;4972449;28;93159;-66
2023/12/24 02:51:08;;;;;;;8.27;1.83;;;;;;;;;;4972547;28;94533;-66
2023/12/24 02:53:34;;;;;;;14.75;2.75;;;;;;;;;;4972817;28;92365;-66
2023/12/24 02:56:01;;;;;;;11.32;1.60;;;;;;;;;;4969920;28;93343;-66
2023/12/24 02:58:28;;;;;;;8.57;2.15;;;;;;;;;;4970485;28;91879;-65
2023/12/24 03:00:54;;;;;;;9.50;1.92;;;;;;;;;;4968308;28;93091;-66
2023/12/24 03:03:20;;;;;;;13.43;1.83;;;;;;;;;;4968363;28;94450;-66
2023/12/24 03:05:47;;;;;;;6.95;1.30;;;;;;;;;;4966391;28;95172;-66
2023/12/24 03:08:14;;;;;;;9.05;1.40;;;;;;;;;;4968679;28;97167;-66
2023/12/24 03:10:41;;;;;;;7.72;1.38;;;;;;;;;;4964010;28;93766;-66
2023/12/24 03:13:07;;;;;;;9.63;1.40;;;;;;;;;;4971499;28;92519;-66
2023/12/24 03:15:33;;;;;;;9.75;1.48;;;;;;;;;;4968893;28;93920;-66
2023/12/24 03:18:00;;;;;;;5.93;1.13;;;;;;;;;;4972369;28;92923;-66
2023/12/24 03:20:26;;;;;;;6.95;1.25;;;;;;;;;;4970625;28;93667;-66
2023/12/24 03:22:53;;;;;;;7.65;1.08;;;;;;;;;;4968223;28;92686;-66
2023/12/24 03:25:20;;;;;;;3.35;0.98;;;;;;;;;;4968191;28;95138;-66
2023/12/24 03:27:46;;;;;;;3.13;0.93;;;;;;;;;;4968551;28;93119;-66
2023/12/24 03:30:12;;;;;;;3.83;0.88;;;;;;;;;;4969512;28;96140;-66
2023/12/24 03:32:39;;;;;;;4.88;0.60;;;;;;;;;;4967758;28;92727;-66
2023/12/24 03:35:05;;;;;;;5.63;0.70;;;;;;;;;;4971440;28;93357;-66
2023/12/24 03:37:32;;;;;;;3.80;0.70;;;;;;;;;;4969392;28;92370;-66
2023/12/24 03:39:58;;;;;;;3.65;0.70;;;;;;;;;;4974833;28;93119;-66
2023/12/24 03:42:25;;;;;;;2.40;0.60;;;;;;;;;;4970820;28;94226;-66
2023/12/24 03:44:51;;;;;;;0.93;0.40;;;;;;;;;;4975315;28;92541;-66
2023/12/24 03:47:17;;;;;;;0.93;0.40;;;;;;;;;;4971918;28;93002;-66
2023/12/24 03:49:44;;;;;;;1.95;0.73;;;;;;;;;;4974622;28;93782;-66
2023/12/24 03:52:10;;;;;;;2.08;0.50;;;;;;;;;;4975299;28;92520;-66
2023/12/24 03:54:37;;;;;;;0.47;0.30;;;;;;;;;;4969042;28;94839;-66
2023/12/24 03:57:03;;;;;;;0.98;0.30;;;;;;;;;;4973703;28;92422;-66
2023/12/24 03:59:30;;;;;;;0.38;0.38;;;;;;;;;;4970648;28;93325;-66
2023/12/24 04:01:56;;;;;;;0.20;0.20;;;;;;;;;;4972717;28;92479;-66
2023/12/24 04:04:23;;;;;;;0.75;0.55;;;;;;;;;;4970397;28;92873;-66
2023/12/24 04:06:49;;;;;;;1.55;0.40;;;;;;;;;;4967575;28;93186;-66
2023/12/24 04:09:16;;;;;;;1.08;0.30;;;;;;;;;;4971525;28;93485;-67
2023/12/24 04:11:42;;;;;;;1.23;0.50;;;;;;;;;;4975893;28;91616;-64
2023/12/24 04:14:09;;;;;;;2.80;0.70;;;;;;;;;;4970724;28;92878;-63
2023/12/24 04:16:35;;;;;;;3.40;0.40;;;;;;;;;;4973268;28;94054;-64
2023/12/24 04:19:02;;;;;;;2.00;0.40;;;;;;;;;;4972412;28;94816;-63
2023/12/24 04:21:30;;;;;;;2.28;0.50;;;;;;;;;;4969078;28;94947;-63
2023/12/24 04:23:57;;;;;;;0.40;0.40;;;;;;;;;;4970118;28;92644;-64
2023/12/24 04:26:23;;;;;;;1.20;0.50;;;;;;;;;;4971314;28;93078;-63
2023/12/24 04:28:50;;;;;;;1.17;0.52;;;;;;;;;;4973115;28;93583;-63
2023/12/24 04:31:16;;;;;;;3.42;0.60;;;;;;;;;;4971048;28;92564;-63
2023/12/24 04:33:42;;;;;;;1.52;0.55;;;;;;;;;;4970736;28;93106;-63
2023/12/24 04:36:16;;;;;;;2.72;0.60;;;;;;;;;;4974828;28;91811;-63
2023/12/24 04:38:42;;;;;;;3.55;0.77;;;;;;;;;;4976537;28;92878;-63
2023/12/24 04:41:14;;;;;;;2.63;0.55;;;;;;;;;;4974087;28;93377;-64
2023/12/24 04:43:41;;;;;;;2.42;0.80;;;;;;;;;;4967978;28;95205;-63
2023/12/24 04:46:07;;;;;;;4.28;0.77;;;;;;;;;;4970047;28;95841;-64
2023/12/24 04:48:33;;;;;;;2.47;0.82;;;;;;;;;;4973774;28;93925;-64
2023/12/24 04:51:02;;;;;;;2.75;1.33;;;;;;;;;;4972768;28;92517;-63
2023/12/24 04:53:28;;;;;;;6.32;0.82;;;;;;;;;;4988162;28;93472;-63
2023/12/24 04:55:54;;;;;;;4.20;0.95;;;;;;;;;;4973916;28;93434;-64
2023/12/24 04:58:21;;;;;;;2.25;0.73;;;;;;;;;;4969422;28;92721;-65
2023/12/24 05:00:47;;;;;;;7.13;0.80;;;;;;;;;;4977384;28;92382;-64
2023/12/24 05:03:14;;;;;;;2.90;0.63;;;;;;;;;;4970153;28;92545;-63
2023/12/24 05:05:40;;;;;;;2.60;0.80;;;;;;;;;;4966391;28;93570;-63
2023/12/24 05:08:07;;;;;;;6.00;1.02;;;;;;;;;;4969443;28;96056;-63
2023/12/24 05:10:33;;;;;;;3.78;1.13;;;;;;;;;;4968447;28;93359;-63
2023/12/24 05:12:59;;;;;;;6.75;1.25;;;;;;;;;;4973262;28;93091;-63
2023/12/24 05:15:26;;;;;;;4.65;1.13;;;;;;;;;;4969765;28;93851;-64
2023/12/24 05:17:54;;;;;;;5.03;0.90;;;;;;;;;;4973254;28;92471;-63
2023/12/24 05:20:21;;;;;;;4.00;1.13;;;;;;;;;;4974113;28;94475;-64
2023/12/24 05:22:47;;;;;;;5.63;1.08;;;;;;;;;;4975291;28;93516;-63
2023/12/24 05:25:14;;;;;;;4.20;1.15;;;;;;;;;;4970198;28;91855;-64
2023/12/24 05:27:41;;;;;;;6.75;1.27;;;;;;;;;;4974093;28;96020;-63
2023/12/24 05:30:07;;;;;;;6.30;1.15;;;;;;;;;;4967470;28;92570;-63
2023/12/24 05:32:34;;;;;;;4.57;0.88;;;;;;;;;;4966130;28;94872;-63
2023/12/24 05:35:00;;;;;;;3.78;0.90;;;;;;;;;;4966733;28;93348;-64
2023/12/24 05:37:27;;;;;;;6.57;1.40;;;;;;;;;;4972919;28;92557;-63
2023/12/24 05:39:53;;;;;;;4.63;1.20;;;;;;;;;;4969932;28;94132;-63
2023/12/24 05:42:19;;;;;;;5.72;1.35;;;;;;;;;;4969229;28;94742;-64
2023/12/24 05:44:46;;;;;;;13.02;1.80;;;;;;;;;;4975914;28;92573;-64
2023/12/24 05:47:12;;;;;;;6.93;1.42;;;;;;;;;;4971750;28;93407;-64
2023/12/24 05:49:39;;;;;;;5.65;1.35;;;;;;;;;;4964362;28;93584;-63
2023/12/24 05:52:05;;;;;;;12.80;1.77;;;;;;;;;;4971389;28;92740;-64
2023/12/24 05:54:31;;;;;;;4.70;1.50;;;;;;;;;;4964769;28;93853;-63
2023/12/24 05:56:58;;;;;;;10.00;1.75;;;;;;;;;;4964106;28;95141;-63
2023/12/24 05:59:24;;;;;;;4.53;1.17;;;;;;;;;;4969183;28;96966;-64
2023/12/24 06:01:51;;;;;;;6.07;1.33;;;;;;;;;;4971161;28;94521;-63
2023/12/24 06:04:17;;;;;;;10.30;2.00;;;;;;;;;;4973600;28;92470;-63
2023/12/24 06:06:43;;;;;;;8.77;1.58;;;;;;;;;;4975195;28;94198;-64
2023/12/24 06:09:10;;;;;;;5.47;1.20;;;;;;;;;;4965610;28;92417;-63
2023/12/24 06:11:36;;;;;;;8.15;1.30;;;;;;;;;;4985859;28;93208;-63
2023/12/24 06:14:03;;;;;;;7.28;1.67;;;;;;;;;;4973261;28;92637;-64
2023/12/24 06:16:29;;;;;;;8.50;1.48;;;;;;;;;;4968924;28;92550;-63
2023/12/24 06:18:56;;;;;;;5.57;1.30;;;;;;;;;;4971287;28;93171;-64
2023/12/24 06:21:22;;;;;;;8.65;1.65;;;;;;;;;;4969397;28;94916;-64
2023/12/24 06:23:50;;;;;;;9.07;2.15;;;;;;;;;;4969492;28;92428;-63
2023/12/24 06:26:16;;;;;;;6.75;1.30;;;;;;;;;;4974955;28;93108;-64
2023/12/24 06:28:43;;;;;;;8.32;1.75;;;;;;;;;;4972560;28;92782;-63
2023/12/24 06:31:09;;;;;;;7.85;1.83;;;;;;;;;;4982254;28;93141;-64
2023/12/24 06:33:36;;;;;;;9.35;1.85;;;;;;;;;;4971994;28;93392;-64
2023/12/24 06:36:02;;;;;;;6.97;1.70;;;;;;;;;;4972539;28;92563;-64
2023/12/24 06:38:29;;;;;;;6.85;1.85;;;;;;;;;;4969974;28;93394;-64
2023/12/24 06:40:55;;;;;;;5.07;1.60;;;;;;;;;;4967908;28;93716;-63
2023/12/24 06:43:22;;;;;;;5.38;1.50;;;;;;;;;;4969843;28;92449;-64
2023/12/24 06:45:48;;;;;;;8.85;1.67;;;;;;;;;;4965916;28;94919;-63
2023/12/24 06:48:15;;;;;;;6.20;1.50;;;;;;;;;;4975419;28;92446;-64
2023/12/24 06:50:41;;;;;;;11.77;2.10;;;;;;;;;;4967152;28;93216;-64
2023/12/24 06:53:08;;;;;;;11.38;2.10;;;;;;;;;;4987137;28;93428;-64
2023/12/24 06:55:34;;;;;;;11.38;1.90;;;;;;;;;;4972413;28;92524;-64
2023/12/24 06:58:03;;;;;;;9.65;1.83;;;;;;;;;;4971087;28;93464;-63
2023/12/24 07:00:30;;;;;;;14.90;2.72;;;;;;;;;;4967277;28;93459;-63
2023/12/24 07:02:56;;;;;;;13.52;2.40;;;;;;;;;;4972602;28;92378;-64
2023/12/24 07:05:22;;;;;;;15.63;2.08;;;;;;;;;;4966002;28;92452;-64
2023/12/24 07:07:49;;;;;;;13.15;2.72;;;;;;;;;;4971480;28;93830;-63
2023/12/24 07:10:15;;;;;;;11.13;2.83;;;;;;;;;;4970820;28;97708;-64
2023/12/24 07:12:41;;;;;;;16.20;3.47;;;;;;;;;;4973152;28;93471;-63
2023/12/24 07:15:08;;;;;;;16.50;3.85;;;;;;;;;;4973401;28;92618;-63
2023/12/24 07:17:34;;;;;;;26.85;4.18;;;;;;;;;;4974158;28;93132;-63
2023/12/24 07:20:01;;;;;;;18.27;3.47;;;;;;;;;;4987347;28;93953;-64
2023/12/24 07:22:27;;;;;;;22.55;3.90;;;;;;;;;;4971249;28;92480;-63
2023/12/24 07:24:54;;;;;;;27.08;4.20;;;;;;;;;;4975460;28;93431;-63
2023/12/24 07:27:21;;;;;;;18.33;4.07;;;;;;;;;;4969727;28;93817;-63
2023/12/24 07:29:47;;;;;;;32.70;4.90;;;;;;;;;;4968393;28;92484;-63
2023/12/24 07:32:14;;;;;;;17.70;3.70;;;;;;;;;;4973028;28;93472;-64
2023/12/24 07:34:40;;;;;;;19.10;3.33;;;;;;;;;;4969603;28;95190;-63
2023/12/24 07:37:07;;;;;;;24.42;4.22;;;;;;;;;;4973912;28;95512;-63
2023/12/24 07:39:33;;;;;;;27.55;4.72;;;;;;;;;;4970049;28;93506;-66
2023/12/24 07:42:00;;;;;;;22.40;4.05;;;;;;;;;;4974525;28;92597;-66
2023/12/24 07:44:26;;;;;;;24.13;5.43;;;;;;;;;;4974851;28;93080;-66
2023/12/24 07:46:53;;;;;;;34.22;5.57;;;;;;;;;;4987910;28;94562;-66
2023/12/24 07:49:19;;;;;;;25.60;4.90;;;;;;;;;;4975682;28;92473;-66
2023/12/24 07:51:47;;;;;;;29.55;5.25;;;;;;;;;;4974765;28;94445;-65
2023/12/24 07:54:14;;;;;;;27.02;4.43;;;;;;;;;;4975557;28;92461;-66
2023/12/24 07:56:40;;;;;;;32.92;4.93;;;;;;;;;;4972035;28;93158;-66
2023/12/24 07:59:06;;;;;;;31.25;5.55;;;;;;;;;;4970175;28;94800;-66
2023/12/24 08:01:33;;;;;;;27.35;4.85;;;;;;;;;;4974350;28;92706;-66
2023/12/24 08:03:59;;;;;;;22.33;4.80;;;;;;;;;;4974076;28;93188;-66
2023/12/24 08:06:25;;;;;;;38.25;5.53;;;;;;;;;;4970889;28;93434;-66
2023/12/24 08:08:56;;;;;;;28.30;4.72;;;;;;;;;;4973579;28;92414;-66
2023/12/24 08:11:22;;;;;;;31.70;5.20;;;;;;;;;;4974102;28;93359;-66
2023/12/24 08:13:48;;;;;;;22.52;4.78;;;;;;;;;;4974596;28;94467;-66
2023/12/24 08:16:15;;;;;;;28.55;5.00;;;;;;;;;;4970695;28;91809;-66
2023/12/24 08:18:41;;;;;;;23.80;4.07;;;;;;;;;;4974034;28;94541;-65
2023/12/24 08:21:09;;;;;;;18.45;3.45;;;;;;;;;;4969871;28;92918;-66
2023/12/24 08:23:37;;;;;;;13.43;2.53;;;;;;;;;;4985607;28;94812;-65
2023/12/24 08:26:05;;;;;;;12.32;2.72;;;;;;;;;;4969348;28;93477;-66
2023/12/24 08:28:31;;;;;;;13.43;2.60;;;;;;;;;;4973527;28;92721;-66
2023/12/24 08:30:57;;;;;;;10.00;2.10;;;;;;;;;;4970939;28;93000;-66
2023/12/24 08:33:24;;;;;;;14.50;2.40;;;;;;;;;;4972393;28;93369;-66
2023/12/24 08:35:50;;;;;;;12.50;2.58;;;;;;;;;;4977008;28;93869;-65
2023/12/24 08:38:17;;;;;;;12.80;2.10;;;;;;;;;;4971752;28;93808;-65
2023/12/24 08:40:43;;;;;;;13.20;2.58;;;;;;;;;;4967833;28;91663;-65
2023/12/24 08:43:10;;;;;;;11.90;2.70;;;;;;;;;;4966639;28;92460;-65
2023/12/24 08:45:36;;;;;;;12.77;3.22;;;;;;;;;;4970646;28;94359;-65
2023/12/24 08:48:03;;;;;;;14.00;2.35;;;;;;;;;;4965337;28;95062;-66
2023/12/24 08:50:29;;;;;;;10.95;2.30;;;;;;;;;;4973961;28;95657;-63
2023/12/24 08:52:56;;;;;;;7.40;2.40;;;;;;;;;;4969549;28;93748;-64
2023/12/24 08:55:23;;;;;;;9.35;2.50;;;;;;;;;;4968340;28;92517;-63
2023/12/24 08:57:49;;;;;;;8.98;2.83;;;;;;;;;;4969621;28;94235;-64
2023/12/24 09:00:16;;;;;;;13.18;2.60;;;;;;;;;;4968624;28;92467;-64
2023/12/24 09:02:42;;;;;;;5.00;2.00;;;;;;;;;;4966513;28;92586;-64
2023/12/24 09:05:09;;;;;;;12.63;2.72;;;;;;;;;;4971395;28;91754;-63
2023/12/24 09:07:35;;;;;;;13.65;2.80;;;;;;;;;;4965421;28;92559;-64
2023/12/24 09:10:02;;;;;;;14.30;2.30;;;;;;;;;;4966635;28;92514;-63
2023/12/24 09:12:29;;;;;;;15.70;2.75;;;;;;;;;;4968366;28;96124;-63
2023/12/24 09:14:55;;;;;;;13.75;3.03;;;;;;;;;;4969632;28;92636;-63
2023/12/24 09:17:21;;;;;;;15.52;3.00;;;;;;;;;;4971256;28;94594;-63
2023/12/24 09:19:48;;;;;;;21.95;3.65;;;;;;;;;;4974581;28;93100;-63
2023/12/24 09:22:14;;;;;;;20.98;3.45;;;;;;;;;;4965436;28;93131;-65
2023/12/24 09:24:40;;;;;;;18.35;3.78;;;;;;;;;;4968416;28;94203;-63
2023/12/24 09:27:07;;;;;;;21.48;3.95;;;;;;;;;;4973381;28;92497;-63
2023/12/24 09:29:33;;;;;;;21.38;3.63;;;;;;;;;;4969440;28;93153;-64
2023/12/24 09:31:59;;;;;;;27.10;4.53;;;;;;;;;;4971716;28;93877;-63
2023/12/24 09:34:26;;;;;;;27.95;4.18;;;;;;;;;;4972674;28;92578;-63
2023/12/24 09:36:52;;;;;;;19.15;3.83;;;;;;;;;;4970434;28;95433;-64
2023/12/24 09:39:19;;;;;;;22.60;3.75;;;;;;;;;;4975832;28;93414;-64
2023/12/24 09:41:46;;;;;;;16.52;4.15;;;;;;;;;;4975322;28;92624;-64
2023/12/24 09:44:13;;;;;;;21.60;4.13;;;;;;;;;;4968517;28;93403;-64
2023/12/24 09:46:39;;;;;;;28.90;5.07;;;;;;;;;;4967804;28;92664;-63
2023/12/24 09:49:05;;;;;;;25.58;4.35;;;;;;;;;;4967381;28;93086;-63
2023/12/24 09:51:34;;;;;;;25.30;5.00;;;;;;;;;;4973866;28;93706;-64
2023/12/24 09:54:00;;;;;;;29.02;4.00;;;;;;;;;;4986029;28;92285;-64
2023/12/24 09:56:27;;;;;;;35.15;5.80;;;;;;;;;;4965336;28;92765;-63
2023/12/24 09:58:53;;;;;;;36.60;5.82;;;;;;;;;;4973972;28;93460;-63
2023/12/24 10:01:20;;;;;;;51.25;5.75;;;;;;;;;;4965290;28;94743;-66
2023/12/24 10:03:47;;;;;;;47.30;7.35;;;;;;;;;;4977662;28;95484;-68
2023/12/24 10:06:14;;;;;;;43.60;6.07;;;;;;;;;;4966652;28;92607;-66
2023/12/24 10:08:41;;;;;;;46.03;6.72;;;;;;;;;;4965047;28;93187;-66
2023/12/24 10:11:15;;;;;;;48.40;6.70;;;;;;;;;;4972765;28;93509;-65
2023/12/24 10:13:42;;;;;;;49.58;6.20;;;;;;;;;;4968860;28;92790;-65
2023/12/24 10:16:09;;;;;;;50.08;8.00;;;;;;;;;;4969504;28;93394;-66
2023/12/24 10:18:48;;;;;;;55.50;6.93;;;;;;;;;;4969375;28;93144;-66
2023/12/24 10:21:15;;;;;;;67.50;11.70;;;;;;;;;;4974033;28;94631;-65
2023/12/24 10:23:42;;;;;;;48.85;6.82;;;;;;;;;;4973315;28;93211;-65
2023/12/24 10:26:11;;;;;;;50.35;7.70;;;;;;;;;;4970193;28;95488;-65
2023/12/24 10:28:50;;;;;;;47.95;6.72;;;;;;;;;;4969302;28;95759;-65
2023/12/24 10:31:27;;;;;;;62.60;7.95;;;;;;;;;;4969366;28;92591;-65
2023/12/24 10:33:58;;;;;;;52.78;6.63;;;;;;;;;;4971364;28;92899;-65
2023/12/24 10:36:25;;;;;;;47.67;7.07;;;;;;;;;;4970706;28;93171;-65
2023/12/24 10:38:51;;;;;;;53.42;7.82;;;;;;;;;;4970702;28;94424;-65
2023/12/24 10:41:17;;;;;;;40.35;6.15;;;;;;;;;;4970364;28;92432;-67
2023/12/24 10:43:44;;;;;;;42.58;5.75;;;;;;;;;;4973227;28;92891;-68
2023/12/24 10:46:10;;;;;;;51.45;5.93;;;;;;;;;;4985636;28;93410;-67
2023/12/24 10:48:36;;;;;;;35.47;6.25;;;;;;;;;;4968033;28;93240;-67
2023/12/24 10:51:03;;;;;;;48.33;6.47;;;;;;;;;;4969191;28;95806;-68
2023/12/24 10:53:29;;;;;;;47.63;6.55;;;;;;;;;;4965642;28;92505;-67
2023/12/24 10:56:02;;;;;;;45.42;6.30;;;;;;;;;;4978613;28;94429;-68
2023/12/24 10:58:36;;;;;;;47.20;6.18;;;;;;;;;;4971093;28;93575;-68
2023/12/24 11:01:08;;;;;;;50.95;7.93;;;;;;;;;;4983331;28;92559;-68
2023/12/24 11:04:01;;;;;;;48.30;6.65;;;;;;;;;;4968483;28;94640;-67
2023/12/24 11:06:36;;;;;;;34.10;5.10;;;;;;;;;;4967331;28;92802;-67
2023/12/24 11:09:14;;;;;;;39.65;5.60;;;;;;;;;;4974800;28;91965;-67
2023/12/24 11:11:50;;;;;;;45.80;6.03;;;;;;;;;;4982871;28;93479;-65
2023/12/24 11:14:37;;;;;;;32.63;5.55;;;;;;;;;;4966221;28;92615;-63
2023/12/24 11:17:08;;;;;;;21.20;4.20;;;;;;;;;;4959022;28;97341;-65
2023/12/24 11:19:37;;;;;;;29.33;4.25;;;;;;;;;;4969954;28;93392;-64
2023/12/24 11:22:09;;;;;;;21.35;3.83;;;;;;;;;;4971297;28;92925;-65
2023/12/24 11:24:45;;;;;;;18.00;3.42;;;;;;;;;;4966718;28;92906;-64
2023/12/24 11:27:19;;;;;;;15.27;3.35;;;;;;;;;;4965805;28;93432;-64
2023/12/24 11:29:50;;;;;;;18.95;3.08;;;;;;;;;;4970694;28;93408;-64
2023/12/24 11:32:26;;;;;;;14.57;2.83;;;;;;;;;;4971514;28;93595;-64
2023/12/24 11:34:55;;;;;;;14.48;2.53;;;;;;;;;;4991513;28;91685;-64
2023/12/24 11:37:40;;;;;;;16.98;3.20;;;;;;;;;;4964158;28;92613;-65
2023/12/24 11:40:17;;;;;;;21.30;5.80;;;;;;;;;;4965117;28;94721;-64
2023/12/24 11:42:50;;;;;;;11.57;2.95;;;;;;;;;;4964299;28;98041;-64
2023/12/24 11:45:25;;;;;;;14.60;2.53;;;;;;;;;;4966437;28;96347;-65
2023/12/24 11:47:52;;;;;;;12.65;2.92;;;;;;;;;;4965716;28;93421;-64
2023/12/24 11:50:19;;;;;;;15.70;3.17;;;;;;;;;;4986356;28;92550;-65
2023/12/24 11:52:46;;;;;;;12.35;2.92;;;;;;;;;;4970383;28;93249;-67
2023/12/24 11:55:16;;;;;;;18.23;3.42;;;;;;;;;;4970872;28;93448;-67
2023/12/24 11:57:43;;;;;;;19.10;3.60;;;;;;;;;;4968882;28;93187;-68
2023/12/24 12:00:12;;;;;;;16.40;4.10;;;;;;;;;;4974203;28;93020;-68
2023/12/24 12:02:38;;;;;;;14.73;3.03;;;;;;;;;;4968581;28;92871;-68
2023/12/24 12:05:04;;;;;;;8.50;2.38;;;;;;;;;;4963519;28;92930;-65
2023/12/24 12:07:31;;;;;;;14.98;2.70;;;;;;;;;;4971642;28;95894;-65
2023/12/24 12:09:57;;;;;;;19.00;5.03;;;;;;;;;;4974869;28;92453;-65
2023/12/24 12:12:23;;;;;;;26.23;5.32;;;;;;;;;;4973035;28;93592;-65
2023/12/24 12:14:50;;;;;;;17.67;2.67;;;;;;;;;;4974816;28;94484;-64
2023/12/24 12:17:16;;;;;;;26.40;4.35;;;;;;;;;;4977306;28;92547;-64
2023/12/24 12:19:43;;;;;;;23.50;4.43;;;;;;;;;;4970805;28;93789;-64
2023/12/24 12:22:09;;;;;;;26.60;4.97;;;;;;;;;;4972259;28;92606;-64
2023/12/24 12:24:36;;;;;;;33.22;4.15;;;;;;;;;;4973106;28;94207;-65
2023/12/24 12:27:02;;;;;;;49.45;10.27;;;;;;;;;;4974156;28;93571;-64
2023/12/24 12:29:31;;;;;;;34.17;5.22;;;;;;;;;;4973994;28;92455;-65
2023/12/24 12:31:58;;;;;;;32.25;5.22;;;;;;;;;;4967934;28;95142;-64
2023/12/24 12:34:25;;;;;;;29.88;4.07;;;;;;;;;;4976977;28;93580;-65
2023/12/24 12:36:51;;;;;;;35.78;4.57;;;;;;;;;;4974697;28;92614;-64
2023/12/24 12:39:17;;;;;;;27.63;4.07;;;;;;;;;;4966202;28;93397;-64
2023/12/24 12:41:44;;;;;;;30.83;3.65;;;;;;;;;;4966384;28;92468;-64
2023/12/24 12:44:10;;;;;;;21.83;4.30;;;;;;;;;;4978377;28;93229;-65
2023/12/24 12:46:37;;;;;;;29.52;4.22;;;;;;;;;;4973129;28;92392;-64
2023/12/24 12:49:03;;;;;;;24.90;4.63;;;;;;;;;;4974194;28;92096;-65
2023/12/24 12:51:30;;;;;;;27.75;4.07;;;;;;;;;;4972154;28;95511;-64
2023/12/24 12:54:04;;;;;;;33.50;4.05;;;;;;;;;;4966344;28;93477;-67
2023/12/24 12:56:30;;;;;;;21.77;3.80;;;;;;;;;;4971818;28;97415;-64
2023/12/24 12:58:57;;;;;;;21.63;4.85;;;;;;;;;;4974646;28;95293;-64
2023/12/24 13:01:24;;;;;;;18.50;3.88;;;;;;;;;;4970319;28;92552;-65
2023/12/24 13:03:58;;;;;;;16.70;3.83;;;;;;;;;;4973692;28;93460;-66
2023/12/24 13:06:24;;;;;;;18.60;2.60;;;;;;;;;;4970219;28;94973;-65
2023/12/24 13:09:00;;;;;;;22.27;3.33;;;;;;;;;;4969511;28;92490;-64
2023/12/24 13:11:27;;;;;;;26.92;4.32;;;;;;;;;;4964343;28;93174;-65
2023/12/24 13:14:04;;;;;;;31.20;5.22;;;;;;;;;;4970115;28;92756;-64
2023/12/24 13:16:30;;;;;;;18.67;3.13;;;;;;;;;;4972831;28;92451;-64
2023/12/24 13:18:56;;;;;;;19.25;3.47;;;;;;;;;;4970963;28;93129;-65
2023/12/24 13:21:23;;;;;;;21.77;3.40;;;;;;;;;;4970128;28;96836;-65
2023/12/24 13:23:50;;;;;;;18.88;3.53;;;;;;;;;;4969789;28;95442;-63
2023/12/24 13:26:17;;;;;;;17.02;3.17;;;;;;;;;;4970185;28;93461;-63
2023/12/24 13:28:44;;;;;;;28.30;3.92;;;;;;;;;;4970150;28;92801;-63
2023/12/24 13:31:10;;;;;;;18.38;2.95;;;;;;;;;;4972395;28;94519;-66
2023/12/24 13:33:37;;;;;;;23.52;3.03;;;;;;;;;;4965769;28;93386;-66
2023/12/24 13:36:04;;;;;;;24.35;4.40;;;;;;;;;;4969852;28;92700;-67
2023/12/24 13:38:30;;;;;;;26.35;4.22;;;;;;;;;;4965497;28;93649;-66
2023/12/24 13:40:58;;;;;;;27.55;3.70;;;;;;;;;;4967558;28;93823;-66
2023/12/24 13:43:24;;;;;;;19.13;3.70;;;;;;;;;;4968710;28;92525;-67
2023/12/24 13:45:51;;;;;;;21.17;3.35;;;;;;;;;;4970115;28;95807;-66
2023/12/24 13:48:17;;;;;;;23.13;4.32;;;;;;;;;;4966324;28;92838;-66
2023/12/24 13:50:44;;;;;;;50.63;9.93;;;;;;;;;;4966370;28;93213;-67
2023/12/24 13:53:10;;;;;;;28.90;4.60;;;;;;;;;;4971912;28;93450;-68
2023/12/24 13:55:55;;;;;;;32.35;5.35;;;;;;;;;;4966425;28;92541;-67
2023/12/24 13:58:21;;;;;;;35.00;4.65;;;;;;;;;;4971818;28;94500;-66
2023/12/24 14:00:48;;;;;;;37.92;5.28;;;;;;;;;;4971828;28;93282;-66
2023/12/24 14:03:14;;;;;;;36.30;5.63;;;;;;;;;;4970207;28;91748;-67
2023/12/24 14:05:41;;;;;;;31.50;4.88;;;;;;;;;;4968250;28;92406;-68
2023/12/24 14:08:07;;;;;;;32.15;4.50;;;;;;;;;;4972051;28;92686;-66
2023/12/24 14:10:34;;;;;;;42.25;8.05;;;;;;;;;;4968054;28;95336;-66
2023/12/24 14:13:00;;;;;;;23.02;3.60;;;;;;;;;;4970906;28;93089;-67
2023/12/24 14:15:27;;;;;;;31.00;4.70;;;;;;;;;;4965620;28;92525;-65
2023/12/24 14:17:53;;;;;;;26.73;3.88;;;;;;;;;;4970585;28;93370;-66
2023/12/24 14:20:20;;;;;;;34.03;4.90;;;;;;;;;;4968923;28;94531;-66
2023/12/24 14:22:47;;;;;;;29.83;4.85;;;;;;;;;;4963638;28;92546;-66
2023/12/24 14:25:13;;;;;;;25.80;4.68;;;;;;;;;;4967342;28;93522;-65
2023/12/24 14:27:39;;;;;;;23.33;3.92;;;;;;;;;;4974102;28;92697;-66
2023/12/24 14:30:12;;;;;;;28.00;5.00;;;;;;;;;;4972878;28;95416;-66
2023/12/24 14:32:38;;;;;;;19.00;3.72;;;;;;;;;;4970451;28;93438;-66
2023/12/24 14:35:06;;;;;;;24.95;5.60;;;;;;;;;;4964724;28;95194;-66